Time;durP1;ratioP1;P1;durP2;ratioP2;P2;SDS_P1;SDS_P2;PMS_P1;PMS_P2;Temp;Humidity;BMP_temperature;BMP_pressure;BME280_temperature;BME280_humidity;BME280_pressure;Samples;Min_cycle;Max_cycle;Signal;HPM_P1;HPM_P2
2024/01/03 00:00:25;;;;;;;7.13;2.10;;;8.40;99.90;;;;;;5026360;28;20108;-85
2024/01/03 00:02:51;;;;;;;6.80;1.73;;;8.40;99.90;;;;;;5016885;28;20045;-84
2024/01/03 00:05:38;;;;;;;7.60;1.80;;;8.50;99.90;;;;;;5005582;28;20120;-84
2024/01/03 00:08:06;;;;;;;8.85;2.35;;;8.40;99.90;;;;;;5041658;28;20128;-84
2024/01/03 00:10:41;;;;;;;7.88;2.35;;;8.20;99.90;;;;;;5023488;28;20502;-84
2024/01/03 00:13:31;;;;;;;9.15;2.20;;;8.10;99.90;;;;;;5033776;28;20140;-85
2024/01/03 00:15:59;;;;;;;13.65;2.65;;;8.30;99.90;;;;;;5036986;28;20105;-84
2024/01/03 00:18:49;;;;;;;8.05;2.15;;;8.30;99.90;;;;;;5012295;28;20498;-84
2024/01/03 00:21:25;;;;;;;6.82;1.60;;;9.00;99.90;;;;;;5014656;28;20072;-84
2024/01/03 00:24:05;;;;;;;7.72;1.80;;;8.10;99.90;;;;;;5028445;28;20056;-84
2024/01/03 00:26:33;;;;;;;9.65;2.38;;;8.30;99.90;;;;;;5027978;28;20049;-84
2024/01/03 00:28:59;;;;;;;8.65;2.60;;;8.30;99.90;;;;;;4995929;28;20120;-85
2024/01/03 00:31:35;;;;;;;11.00;2.88;;;8.30;99.90;;;;;;4994254;28;20132;-84
2024/01/03 00:34:01;;;;;;;6.93;2.03;;;8.70;99.90;;;;;;4994884;28;20045;-84
2024/01/03 00:36:26;;;;;;;7.10;1.95;;;8.10;99.90;;;;;;4997335;28;20045;-84
2024/01/03 00:38:52;;;;;;;10.95;2.00;;;8.20;99.90;;;;;;4998054;28;20132;-84
2024/01/03 00:41:18;;;;;;;8.05;1.90;;;8.10;99.90;;;;;;5016851;28;20065;-84
2024/01/03 00:43:43;;;;;;;9.45;2.40;;;8.00;99.90;;;;;;4989203;28;20038;-84
2024/01/03 00:46:10;;;;;;;11.13;2.35;;;8.30;99.90;;;;;;4987190;28;20049;-85
2024/01/03 00:48:36;;;;;;;9.95;2.10;;;8.10;99.90;;;;;;4984024;28;20034;-84
2024/01/03 00:51:03;;;;;;;8.32;2.20;;;8.10;99.90;;;;;;5011367;28;20402;-83
2024/01/03 00:53:30;;;;;;;9.35;2.10;;;8.20;99.90;;;;;;4996353;28;20474;-84
2024/01/03 00:55:56;;;;;;;7.55;2.00;;;8.10;99.90;;;;;;5007811;28;20049;-84
2024/01/03 00:58:23;;;;;;;9.07;2.30;;;8.00;99.90;;;;;;4968655;28;20041;-84
2024/01/03 01:00:49;;;;;;;7.43;1.88;;;8.20;99.90;;;;;;4996676;28;20445;-84
2024/01/03 01:03:16;;;;;;;8.73;2.08;;;8.00;99.90;;;;;;4980392;28;20446;-84
2024/01/03 01:05:43;;;;;;;9.70;2.13;;;8.10;99.90;;;;;;5008630;28;20103;-84
2024/01/03 01:08:08;;;;;;;9.15;1.80;;;8.80;99.90;;;;;;5006898;28;20495;-83
2024/01/03 01:10:34;;;;;;;10.10;2.10;;;8.20;99.90;;;;;;5017458;28;20085;-85
2024/01/03 01:13:00;;;;;;;9.30;1.85;;;8.00;99.90;;;;;;5031082;28;20041;-85
2024/01/03 01:15:25;;;;;;;7.40;2.05;;;8.10;99.90;;;;;;5017735;28;20050;-84
2024/01/03 01:17:51;;;;;;;8.02;2.10;;;8.10;99.90;;;;;;5011831;28;20152;-84
2024/01/03 01:20:17;;;;;;;8.48;1.90;;;7.90;99.90;;;;;;5013223;28;20060;-84
2024/01/03 01:22:42;;;;;;;7.45;1.85;;;7.90;99.90;;;;;;5015099;28;20057;-84
2024/01/03 01:25:08;;;;;;;11.80;2.50;;;8.80;99.90;;;;;;4991312;28;20042;-84
2024/01/03 01:27:34;;;;;;;9.95;2.60;;;8.40;99.90;;;;;;4995878;28;20515;-85
2024/01/03 01:29:59;;;;;;;9.88;2.30;;;8.00;99.90;;;;;;4992355;28;20042;-84
2024/01/03 01:32:26;;;;;;;9.20;2.53;;;;;;;;;;4988606;28;20477;-84
2024/01/03 01:34:52;;;;;;;11.52;2.75;;;;;;;;;;4975386;28;20515;-84
2024/01/03 01:37:17;;;;;;;9.13;2.55;;;7.90;99.90;;;;;;5016118;28;20522;-84
2024/01/03 01:39:44;;;;;;;8.70;2.20;;;8.10;99.90;;;;;;5016556;28;20046;-84
2024/01/03 01:42:10;;;;;;;12.02;2.13;;;8.00;99.90;;;;;;4964205;28;20038;-84
2024/01/03 01:44:36;;;;;;;7.25;2.10;;;9.10;99.90;;;;;;4995906;28;20072;-84
2024/01/03 01:47:05;;;;;;;9.43;2.13;;;7.90;99.90;;;;;;5009390;28;20340;-85
2024/01/03 01:49:32;;;;;;;10.15;2.20;;;8.10;99.90;;;;;;4980274;28;20049;-84
2024/01/03 01:51:59;;;;;;;9.48;2.97;;;8.10;99.90;;;;;;5005878;28;20128;-84
2024/01/03 01:54:25;;;;;;;9.52;2.05;;;8.00;99.90;;;;;;4995493;28;20081;-85
2024/01/03 01:56:51;;;;;;;7.95;2.05;;;7.90;99.90;;;;;;5011147;28;20487;-84
2024/01/03 01:59:20;;;;;;;8.20;1.98;;;7.90;99.90;;;;;;4997309;28;20107;-84
2024/01/03 02:01:46;;;;;;;10.93;2.00;;;9.10;99.90;;;;;;5015211;28;20046;-85
2024/01/03 02:04:11;;;;;;;6.78;1.65;;;7.90;99.90;;;;;;4994850;28;20414;-85
2024/01/03 02:06:37;;;;;;;11.95;2.50;;;8.00;99.90;;;;;;4982514;28;20041;-84
2024/01/03 02:09:03;;;;;;;13.05;2.63;;;8.90;99.90;;;;;;5006435;28;20119;-85
2024/01/03 02:11:29;;;;;;;8.75;2.05;;;8.50;99.90;;;;;;4976712;28;20038;-84
2024/01/03 02:13:54;;;;;;;9.75;2.10;;;8.50;99.90;;;;;;4975154;28;20056;-84
2024/01/03 02:16:20;;;;;;;11.07;2.15;;;8.10;99.90;;;;;;4979195;28;20034;-84
2024/01/03 02:18:47;;;;;;;9.02;2.00;;;8.00;99.90;;;;;;5003669;28;20076;-84
2024/01/03 02:21:15;;;;;;;11.55;2.13;;;8.10;99.90;;;;;;4992888;28;20041;-85
2024/01/03 02:23:41;;;;;;;9.40;2.50;;;8.20;99.90;;;;;;5008752;28;20481;-84
2024/01/03 02:26:08;;;;;;;12.55;2.42;;;8.50;99.90;;;;;;5021457;28;20045;-84
2024/01/03 02:28:34;;;;;;;9.13;2.10;;;8.20;99.90;;;;;;5002916;28;20049;-84
2024/01/03 02:31:00;;;;;;;9.82;2.20;;;8.00;99.90;;;;;;5016328;28;20040;-84
2024/01/03 02:33:26;;;;;;;15.15;2.67;;;8.10;99.90;;;;;;4980150;28;20414;-84
2024/01/03 02:35:52;;;;;;;9.02;2.00;;;8.30;99.90;;;;;;5001992;28;20041;-84
2024/01/03 02:38:18;;;;;;;9.77;2.20;;;8.10;99.90;;;;;;5015784;28;20119;-84
2024/01/03 02:40:44;;;;;;;10.25;2.58;;;8.40;99.90;;;;;;4988872;28;20118;-84
2024/01/03 02:43:10;;;;;;;6.97;2.00;;;8.10;99.90;;;;;;4979000;28;20423;-84
2024/01/03 02:45:37;;;;;;;14.18;2.60;;;8.20;99.90;;;;;;4998729;28;20034;-84
2024/01/03 02:48:02;;;;;;;8.55;2.13;;;8.40;99.90;;;;;;4967855;28;20117;-83
2024/01/03 02:50:28;;;;;;;8.15;2.53;;;8.30;99.90;;;;;;4991424;28;20120;-84
2024/01/03 02:52:54;;;;;;;8.27;2.03;;;8.30;99.90;;;;;;4975365;28;20042;-84
2024/01/03 02:55:21;;;;;;;10.93;2.10;;;8.40;99.90;;;;;;4993941;28;20042;-84
2024/01/03 02:57:47;;;;;;;9.75;2.35;;;8.20;99.90;;;;;;4979170;28;20419;-84
2024/01/03 03:00:13;;;;;;;8.05;2.03;;;8.20;99.90;;;;;;5018397;28;20044;-85
2024/01/03 03:02:39;;;;;;;6.03;1.85;;;8.40;99.90;;;;;;5002535;28;20501;-85
2024/01/03 03:05:04;;;;;;;8.90;2.42;;;8.50;99.90;;;;;;4970894;28;20038;-85
2024/01/03 03:07:30;;;;;;;8.82;1.92;;;8.40;99.90;;;;;;4977242;28;20042;-84
2024/01/03 03:09:56;;;;;;;12.27;2.70;;;8.40;99.90;;;;;;5000706;28;20048;-84
2024/01/03 03:12:21;;;;;;;12.20;2.63;;;7.50;99.90;;;;;;4962282;28;20048;-85
2024/01/03 03:14:47;;;;;;;10.27;2.35;;;8.50;99.90;;;;;;4980212;28;20042;-84
2024/01/03 03:17:13;;;;;;;8.95;2.03;;;9.20;99.90;;;;;;4988265;28;20046;-84
2024/01/03 03:19:39;;;;;;;9.18;2.05;;;8.60;99.90;;;;;;5010849;28;20038;-85
2024/01/03 03:22:04;;;;;;;8.30;1.90;;;8.60;99.90;;;;;;5019482;28;20521;-84
2024/01/03 03:24:30;;;;;;;9.48;2.08;;;8.60;99.90;;;;;;4993157;28;20041;-84
2024/01/03 03:26:56;;;;;;;10.32;2.05;;;8.50;99.90;;;;;;5010330;28;20458;-84
2024/01/03 03:29:21;;;;;;;10.43;2.17;;;8.80;99.90;;;;;;4990841;28;20069;-84
2024/01/03 03:31:47;;;;;;;8.85;2.33;;;8.70;99.90;;;;;;5019301;28;20144;-84
2024/01/03 03:34:16;;;;;;;8.10;2.25;;;8.50;99.90;;;;;;4997589;28;20045;-83
2024/01/03 03:36:42;;;;;;;10.95;2.65;;;8.50;99.90;;;;;;4990704;28;20106;-83
2024/01/03 03:39:08;;;;;;;10.82;2.45;;;9.30;99.90;;;;;;4958971;28;20061;-84
2024/01/03 03:41:33;;;;;;;9.23;2.28;;;8.60;99.90;;;;;;5009935;28;20038;-84
2024/01/03 03:43:59;;;;;;;7.70;2.20;;;8.60;99.90;;;;;;4994102;28;20046;-85
2024/01/03 03:46:25;;;;;;;8.77;1.88;;;8.70;99.90;;;;;;4992677;28;20517;-84
2024/01/03 03:48:50;;;;;;;8.40;2.20;;;8.80;99.90;;;;;;4996219;28;20037;-84
2024/01/03 03:51:16;;;;;;;6.40;1.75;;;8.60;99.90;;;;;;5005068;28;20029;-83
2024/01/03 03:53:41;;;;;;;8.40;1.98;;;8.60;99.90;;;;;;5009458;28;20716;-84
2024/01/03 03:56:07;;;;;;;7.03;1.73;;;8.70;99.90;;;;;;4993119;28;20037;-84
2024/01/03 03:58:33;;;;;;;7.55;1.90;;;8.70;99.90;;;;;;4976482;28;20041;-84
2024/01/03 04:00:59;;;;;;;7.60;1.90;;;8.70;99.90;;;;;;5007618;28;20041;-83
2024/01/03 04:03:24;;;;;;;10.48;2.38;;;8.80;99.90;;;;;;5007741;28;20541;-85
2024/01/03 04:05:50;;;;;;;11.48;2.00;;;8.70;99.90;;;;;;4990099;28;20070;-85
2024/01/03 04:08:16;;;;;;;11.25;2.40;;;8.70;99.90;;;;;;4994159;28;20499;-83
2024/01/03 04:10:42;;;;;;;10.45;2.28;;;8.70;99.90;;;;;;4994644;28;20395;-85
2024/01/03 04:13:07;;;;;;;10.00;2.50;;;9.00;99.90;;;;;;4998724;28;20072;-84
2024/01/03 04:15:34;;;;;;;9.85;2.45;;;8.70;99.90;;;;;;4995032;28;20545;-84
2024/01/03 04:18:00;;;;;;;6.97;1.70;;;8.60;99.90;;;;;;5010061;28;20038;-84
2024/01/03 04:20:26;;;;;;;8.90;1.90;;;8.70;99.90;;;;;;4979787;28;20070;-84
2024/01/03 04:22:51;;;;;;;9.68;2.40;;;8.80;99.90;;;;;;5009695;28;20284;-84
2024/01/03 04:25:17;;;;;;;8.55;2.30;;;8.80;99.90;;;;;;4992149;28;20050;-84
2024/01/03 04:27:43;;;;;;;7.10;1.80;;;8.70;99.90;;;;;;4976897;28;20046;-84
2024/01/03 04:30:09;;;;;;;7.75;1.83;;;8.60;99.90;;;;;;5004000;28;20104;-84
2024/01/03 04:32:34;;;;;;;9.38;2.00;;;8.60;99.90;;;;;;4974988;28;20266;-84
2024/01/03 04:35:00;;;;;;;6.72;2.30;;;9.70;99.90;;;;;;4997294;28;20038;-83
2024/01/03 04:37:26;;;;;;;8.20;1.92;;;8.70;99.90;;;;;;5002732;28;20041;-84
2024/01/03 04:39:52;;;;;;;10.98;2.20;;;8.80;99.90;;;;;;5008448;28;20084;-84
2024/01/03 04:42:18;;;;;;;9.35;2.00;;;8.80;99.90;;;;;;4996586;28;20074;-84
2024/01/03 04:44:44;;;;;;;8.38;2.03;;;8.80;99.90;;;;;;4998020;28;20044;-84
2024/01/03 04:47:10;;;;;;;7.72;2.20;;;9.10;99.90;;;;;;4994477;28;20288;-85
2024/01/03 04:49:36;;;;;;;6.03;1.70;;;9.40;99.90;;;;;;5003079;28;20677;-85
2024/01/03 04:52:02;;;;;;;9.43;1.95;;;8.70;99.90;;;;;;5014433;28;20037;-84
2024/01/03 04:54:29;;;;;;;6.20;2.15;;;8.70;99.90;;;;;;5004773;28;20121;-84
2024/01/03 04:56:55;;;;;;;7.63;1.90;;;8.80;99.90;;;;;;4981914;28;20507;-84
2024/01/03 04:59:20;;;;;;;7.80;2.05;;;8.70;99.90;;;;;;4990112;28;20052;-84
2024/01/03 05:01:46;;;;;;;6.13;1.60;;;8.60;99.90;;;;;;4972242;28;20068;-84
2024/01/03 05:04:12;;;;;;;6.80;1.70;;;8.60;99.90;;;;;;4995083;28;20034;-84
2024/01/03 05:06:38;;;;;;;8.02;1.73;;;8.60;99.90;;;;;;5015331;28;20358;-84
2024/01/03 05:09:04;;;;;;;7.53;1.63;;;8.70;99.90;;;;;;5009121;28;20046;-84
2024/01/03 05:11:30;;;;;;;9.90;2.17;;;8.80;99.90;;;;;;4973807;28;20056;-85
2024/01/03 05:13:56;;;;;;;7.93;1.90;;;8.90;99.90;;;;;;4995342;28;20037;-84
2024/01/03 05:16:22;;;;;;;7.82;2.10;;;8.70;99.90;;;;;;4989470;28;20694;-84
2024/01/03 05:18:48;;;;;;;6.30;1.70;;;8.60;99.90;;;;;;4993766;28;20569;-84
2024/01/03 05:21:14;;;;;;;7.05;1.73;;;8.80;99.90;;;;;;4985344;28;20041;-84
2024/01/03 05:23:40;;;;;;;5.97;1.75;;;8.80;99.90;;;;;;5005718;28;20403;-84
2024/01/03 05:26:05;;;;;;;9.70;2.10;;;9.50;99.90;;;;;;5013140;28;20037;-84
2024/01/03 05:28:32;;;;;;;8.93;1.90;;;8.70;99.90;;;;;;4968594;28;20565;-84
2024/01/03 05:30:58;;;;;;;10.43;1.90;;;8.80;99.90;;;;;;4985337;28;20159;-84
2024/01/03 05:33:25;;;;;;;11.10;2.42;;;8.80;99.90;;;;;;5008117;28;20077;-83
2024/01/03 05:35:51;;;;;;;9.05;2.30;;;8.80;99.90;;;;;;4996567;28;20049;-84
2024/01/03 05:38:17;;;;;;;8.93;2.00;;;8.60;99.90;;;;;;5007955;28;20057;-84
2024/01/03 05:40:43;;;;;;;5.95;1.92;;;8.50;99.90;;;;;;5015700;28;20046;-84
2024/01/03 05:43:11;;;;;;;7.93;1.90;;;9.80;99.90;;;;;;5005328;28;20092;-85
2024/01/03 05:45:36;;;;;;;4.10;1.45;;;8.60;99.90;;;;;;4955295;28;20044;-84
2024/01/03 05:48:02;;;;;;;4.30;1.50;;;8.70;99.90;;;;;;4988015;28;20042;-84
2024/01/03 05:50:28;;;;;;;9.57;2.00;;;8.60;99.90;;;;;;5015638;28;20041;-84
2024/01/03 05:52:54;;;;;;;6.82;1.90;;;8.50;99.90;;;;;;5018641;28;20053;-85
2024/01/03 05:55:19;;;;;;;5.68;1.70;;;8.40;99.90;;;;;;4994355;28;20520;-85
2024/01/03 05:57:45;;;;;;;4.97;1.60;;;8.60;99.90;;;;;;4991187;28;20450;-85
2024/01/03 06:00:11;;;;;;;7.70;1.92;;;8.50;99.90;;;;;;4965720;28;20034;-85
2024/01/03 06:02:37;;;;;;;9.35;1.92;;;8.30;99.90;;;;;;5011438;28;20042;-84
2024/01/03 06:05:03;;;;;;;9.13;2.40;;;8.50;99.90;;;;;;4984208;28;20272;-84
2024/01/03 06:07:29;;;;;;;13.55;2.60;;;8.40;99.90;;;;;;4998668;28;20632;-84
2024/01/03 06:09:55;;;;;;;12.20;2.42;;;8.50;99.90;;;;;;5017691;28;20060;-85
2024/01/03 06:12:21;;;;;;;13.93;3.28;;;8.40;99.90;;;;;;4994477;28;20049;-84
2024/01/03 06:14:47;;;;;;;12.35;3.10;;;8.40;99.90;;;;;;5007892;28;20116;-84
2024/01/03 06:17:12;;;;;;;14.63;3.13;;;8.50;99.90;;;;;;4979636;28;20042;-84
2024/01/03 06:19:38;;;;;;;11.60;2.70;;;8.60;99.90;;;;;;4994921;28;20052;-83
2024/01/03 06:22:04;;;;;;;11.48;2.53;;;8.70;99.90;;;;;;4992255;28;20049;-84
2024/01/03 06:24:30;;;;;;;12.43;2.95;;;;;;;;;;4994229;28;20080;-84
2024/01/03 06:26:55;;;;;;;12.50;3.28;;;8.50;99.90;;;;;;5025128;28;20053;-85
2024/01/03 06:29:21;;;;;;;15.23;3.78;;;8.80;99.90;;;;;;4994162;28;20046;-85
2024/01/03 06:31:47;;;;;;;14.93;3.45;;;8.50;99.90;;;;;;4996981;28;20431;-84
2024/01/03 06:34:12;;;;;;;12.02;2.55;;;8.60;99.90;;;;;;4989058;28;20077;-84
2024/01/03 06:36:38;;;;;;;12.07;2.70;;;9.10;99.90;;;;;;4996784;28;20046;-84
2024/01/03 06:39:04;;;;;;;12.35;2.88;;;8.80;99.90;;;;;;4972985;28;20080;-84
2024/01/03 06:41:29;;;;;;;14.60;2.80;;;8.60;99.90;;;;;;4997760;28;20049;-84
2024/01/03 06:43:55;;;;;;;15.73;2.83;;;8.80;99.90;;;;;;5022136;28;20045;-84
2024/01/03 06:46:25;;;;;;;13.88;2.60;;;8.80;99.90;;;;;;4977589;28;20129;-84
2024/01/03 06:48:50;;;;;;;14.07;2.70;;;8.80;99.90;;;;;;5007040;28;20779;-85
2024/01/03 06:51:20;;;;;;;12.43;2.53;;;8.70;99.90;;;;;;5008265;28;20033;-84
2024/01/03 06:53:46;;;;;;;17.13;3.15;;;8.80;99.90;;;;;;4981244;28;20128;-84
2024/01/03 06:56:11;;;;;;;11.77;2.50;;;8.90;99.90;;;;;;5006080;28;20113;-84
2024/01/03 06:58:37;;;;;;;13.77;3.20;;;8.70;99.90;;;;;;5016446;28;20105;-84
2024/01/03 07:01:03;;;;;;;11.55;2.72;;;8.70;99.90;;;;;;5008247;28;20058;-84
2024/01/03 07:03:29;;;;;;;16.63;3.30;;;8.80;99.90;;;;;;4994665;28;20085;-85
2024/01/03 07:05:54;;;;;;;14.77;2.53;;;8.80;99.90;;;;;;4978454;28;20046;-85
2024/01/03 07:08:20;;;;;;;13.63;3.33;;;8.70;99.90;;;;;;4996103;28;20034;-84
2024/01/03 07:10:46;;;;;;;11.75;3.00;;;8.90;99.90;;;;;;5024706;28;20069;-84
2024/01/03 07:13:11;;;;;;;13.63;2.90;;;8.80;99.90;;;;;;4991004;28;20031;-85
2024/01/03 07:15:37;;;;;;;16.15;3.03;;;8.90;99.90;;;;;;5006548;28;20064;-85
2024/01/03 07:18:03;;;;;;;11.23;2.80;;;8.90;99.90;;;;;;5010196;28;20519;-85
2024/01/03 07:20:30;;;;;;;14.88;3.30;;;8.80;99.90;;;;;;4984962;28;20045;-84
2024/01/03 07:22:56;;;;;;;14.02;2.88;;;8.80;99.90;;;;;;4991562;28;20388;-84
2024/01/03 07:25:21;;;;;;;12.25;2.95;;;8.90;99.90;;;;;;5000765;28;20531;-84
2024/01/03 07:27:47;;;;;;;11.52;2.75;;;8.90;99.90;;;;;;5006384;28;20049;-84
2024/01/03 07:30:13;;;;;;;11.15;3.05;;;8.80;99.90;;;;;;4971734;28;20128;-85
2024/01/03 07:32:39;;;;;;;13.45;2.50;;;8.80;99.90;;;;;;5015222;28;20113;-85
2024/01/03 07:35:05;;;;;;;11.43;2.65;;;8.60;99.90;;;;;;5006308;28;20064;-85
2024/01/03 07:37:33;;;;;;;10.38;2.53;;;8.70;99.90;;;;;;4987201;28;20091;-84
2024/01/03 07:39:58;;;;;;;13.55;2.72;;;8.80;99.90;;;;;;5005155;28;20411;-84
2024/01/03 07:42:24;;;;;;;12.35;2.67;;;8.80;99.90;;;;;;4976980;28;20042;-84
2024/01/03 07:44:50;;;;;;;12.93;2.63;;;8.80;99.90;;;;;;5005790;28;20552;-85
2024/01/03 07:47:15;;;;;;;11.02;2.70;;;8.70;99.90;;;;;;4977880;28;20047;-84
2024/01/03 07:49:42;;;;;;;8.95;2.15;;;8.70;99.90;;;;;;4992210;28;20044;-84
2024/01/03 07:52:08;;;;;;;13.57;3.42;;;8.60;99.90;;;;;;4972768;28;20299;-84
2024/01/03 07:54:34;;;;;;;12.20;2.40;;;8.70;99.90;;;;;;4993701;28;20335;-84
2024/01/03 07:57:02;;;;;;;11.27;2.60;;;8.70;99.90;;;;;;4983155;28;20041;-85
2024/01/03 07:59:28;;;;;;;12.23;2.53;;;8.90;99.90;;;;;;4981411;28;20041;-84
2024/01/03 08:01:54;;;;;;;11.70;2.92;;;8.70;99.90;;;;;;4995381;28;20470;-84
2024/01/03 08:04:19;;;;;;;13.07;2.65;;;8.60;99.90;;;;;;4960084;28;20040;-84
2024/01/03 08:06:45;;;;;;;10.02;2.70;;;8.60;99.90;;;;;;4984796;28;20513;-84
2024/01/03 08:09:11;;;;;;;12.15;2.85;;;8.80;99.90;;;;;;4981870;28;20042;-84
2024/01/03 08:11:37;;;;;;;12.70;3.10;;;8.70;99.90;;;;;;5020785;28;20042;-84
2024/01/03 08:14:02;;;;;;;10.88;2.50;;;8.80;99.90;;;;;;4957918;28;20046;-84
2024/01/03 08:16:28;;;;;;;13.18;2.83;;;8.60;99.90;;;;;;5004315;28;20050;-83
2024/01/03 08:18:54;;;;;;;12.63;2.70;;;8.60;99.90;;;;;;4987530;28;20050;-83
2024/01/03 08:21:20;;;;;;;13.18;2.80;;;8.70;99.90;;;;;;4994756;28;20034;-84
2024/01/03 08:23:46;;;;;;;11.95;2.63;;;8.70;99.90;;;;;;4989312;28;20038;-83
2024/01/03 08:26:12;;;;;;;11.88;2.65;;;8.50;99.90;;;;;;5008125;28;20088;-83
2024/01/03 08:28:40;;;;;;;12.30;2.53;;;8.70;99.90;;;;;;4988295;28;20069;-83
2024/01/03 08:31:17;;;;;;;11.88;2.53;;;8.50;99.90;;;;;;4986718;28;20089;-83
2024/01/03 08:33:44;;;;;;;11.48;2.58;;;8.50;99.90;;;;;;4987050;28;20272;-83
2024/01/03 08:36:13;;;;;;;13.85;3.30;;;8.50;99.90;;;;;;4972134;28;20037;-82
2024/01/03 08:38:40;;;;;;;10.88;3.13;;;8.70;99.90;;;;;;4981495;28;20052;-83
2024/01/03 08:41:17;;;;;;;12.52;2.40;;;8.70;99.90;;;;;;4970215;28;20144;-83
2024/01/03 08:43:44;;;;;;;6.85;2.10;;;8.70;99.90;;;;;;4986980;28;20037;-83
2024/01/03 08:46:10;;;;;;;11.63;2.20;;;8.70;99.90;;;;;;4973370;28;20026;-83
2024/01/03 08:48:42;;;;;;;11.00;2.28;;;8.60;99.90;;;;;;4985040;28;20041;-83
2024/01/03 08:51:13;;;;;;;12.60;2.67;;;8.70;99.90;;;;;;4985334;28;20120;-84
2024/01/03 08:53:38;;;;;;;11.95;2.28;;;8.50;99.90;;;;;;5003223;28;20033;-84
2024/01/03 08:56:14;;;;;;;9.98;2.08;;;8.50;99.90;;;;;;5001096;28;20457;-83
2024/01/03 08:58:41;;;;;;;9.75;2.35;;;8.50;99.90;;;;;;5003158;28;20033;-83
2024/01/03 09:01:08;;;;;;;11.50;2.70;;;8.50;99.90;;;;;;4987785;28;20069;-83
2024/01/03 09:03:38;;;;;;;10.27;2.30;;;8.50;99.90;;;;;;4986842;28;20033;-84
2024/01/03 09:06:05;;;;;;;11.48;2.72;;;8.50;99.90;;;;;;4997139;28;20145;-83
2024/01/03 09:08:30;;;;;;;9.50;2.10;;;8.40;99.90;;;;;;4986227;28;20034;-84
2024/01/03 09:10:56;;;;;;;12.77;2.47;;;8.60;99.90;;;;;;4975399;28;20050;-84
2024/01/03 09:13:22;;;;;;;11.60;2.55;;;8.70;99.90;;;;;;5005739;28;20046;-84
2024/01/03 09:15:47;;;;;;;9.85;2.38;;;8.60;99.90;;;;;;4984055;28;20046;-84
2024/01/03 09:18:13;;;;;;;12.15;2.92;;;8.60;99.90;;;;;;5000539;28;20062;-84
2024/01/03 09:20:39;;;;;;;12.43;2.40;;;9.00;99.90;;;;;;4967844;28;20042;-83
2024/01/03 09:23:04;;;;;;;10.52;2.35;;;8.80;99.90;;;;;;4970069;28;20546;-85
2024/01/03 09:25:30;;;;;;;11.02;2.25;;;8.70;99.90;;;;;;5022557;28;20042;-83
2024/01/03 09:27:56;;;;;;;11.82;2.70;;;8.70;99.90;;;;;;4979612;28;20584;-83
2024/01/03 09:30:21;;;;;;;12.75;2.55;;;8.70;99.90;;;;;;5003436;28;20051;-83
2024/01/03 09:32:50;;;;;;;13.60;2.60;;;8.80;99.90;;;;;;5002125;28;20533;-83
2024/01/03 09:35:16;;;;;;;10.82;2.63;;;9.20;99.90;;;;;;4983037;28;20080;-83
2024/01/03 09:37:41;;;;;;;9.70;2.15;;;8.80;99.90;;;;;;4970989;28;20479;-83
2024/01/03 09:40:09;;;;;;;12.68;3.00;;;8.90;99.90;;;;;;5000073;28;20072;-83
2024/01/03 09:42:36;;;;;;;9.65;2.30;;;8.80;99.90;;;;;;4971049;28;20041;-84
2024/01/03 09:45:02;;;;;;;8.55;2.30;;;8.70;99.90;;;;;;5002008;28;20061;-83
2024/01/03 09:47:28;;;;;;;10.05;2.42;;;8.80;99.90;;;;;;5015876;28;20046;-84
2024/01/03 09:49:54;;;;;;;12.52;2.45;;;8.80;99.90;;;;;;4972206;28;20048;-83
2024/01/03 09:52:20;;;;;;;10.60;2.33;;;8.90;99.90;;;;;;4983667;28;20045;-83
2024/01/03 09:54:46;;;;;;;12.10;2.58;;;9.10;99.90;;;;;;4998844;28;20042;-83
2024/01/03 09:57:14;;;;;;;11.60;2.50;;;8.90;99.90;;;;;;4972897;28;20108;-83
2024/01/03 09:59:40;;;;;;;10.88;2.75;;;8.90;99.90;;;;;;5007469;28;20740;-83
2024/01/03 10:02:06;;;;;;;13.38;2.47;;;8.90;99.90;;;;;;4986921;28;20065;-83
2024/01/03 10:04:33;;;;;;;10.15;2.45;;;9.10;99.90;;;;;;5005767;28;20402;-83
2024/01/03 10:06:59;;;;;;;8.75;2.03;;;8.90;99.90;;;;;;5001347;28;20521;-84
2024/01/03 10:09:39;;;;;;;9.25;2.28;;;8.90;99.90;;;;;;4970775;28;20038;-83
2024/01/03 10:12:16;;;;;;;8.68;2.00;;;8.80;99.90;;;;;;4990641;28;20193;-83
2024/01/03 10:14:41;;;;;;;7.78;1.80;;;9.10;99.90;;;;;;5020480;28;20073;-83
2024/01/03 10:17:10;;;;;;;7.32;1.52;;;9.00;99.90;;;;;;5003250;28;20088;-83
2024/01/03 10:19:36;;;;;;;9.95;2.35;;;9.10;99.90;;;;;;5006736;28;20038;-83
2024/01/03 10:22:03;;;;;;;11.35;2.72;;;9.00;99.90;;;;;;4971033;28;20569;-83
2024/01/03 10:24:31;;;;;;;10.43;2.15;;;9.00;99.90;;;;;;5004231;28;20038;-83
2024/01/03 10:27:17;;;;;;;10.52;2.28;;;9.10;99.90;;;;;;4991046;28;20030;-84
2024/01/03 10:29:43;;;;;;;12.07;2.42;;;9.10;99.90;;;;;;5036633;28;20483;-83
2024/01/03 10:32:14;;;;;;;11.45;2.42;;;9.10;99.90;;;;;;5007793;28;20049;-83
2024/01/03 10:34:40;;;;;;;9.65;2.13;;;9.10;99.90;;;;;;4973809;28;20128;-83
2024/01/03 10:37:07;;;;;;;9.52;2.10;;;9.20;99.90;;;;;;4987960;28;20080;-84
2024/01/03 10:39:35;;;;;;;9.75;2.30;;;9.20;99.90;;;;;;4985982;28;20038;-84
2024/01/03 10:42:05;;;;;;;11.63;2.63;;;9.10;99.90;;;;;;5015344;28;20037;-84
2024/01/03 10:44:33;;;;;;;10.93;2.15;;;9.20;99.90;;;;;;5007406;28;20049;-83
2024/01/03 10:46:59;;;;;;;11.10;2.30;;;9.30;99.90;;;;;;4990617;28;20034;-84
2024/01/03 10:49:25;;;;;;;12.35;2.58;;;9.20;99.90;;;;;;4989279;28;20045;-83
2024/01/03 10:52:00;;;;;;;9.50;2.15;;;9.10;99.90;;;;;;4989224;28;20061;-83
2024/01/03 10:54:27;;;;;;;8.85;2.03;;;9.10;99.90;;;;;;5006797;28;20041;-83
2024/01/03 10:56:53;;;;;;;8.57;1.92;;;9.20;99.90;;;;;;5006644;28;20157;-83
2024/01/03 10:59:27;;;;;;;10.00;2.30;;;9.40;99.90;;;;;;4986055;28;20491;-83
2024/01/03 11:02:01;;;;;;;9.65;2.05;;;9.20;99.90;;;;;;4988482;28;20491;-83
2024/01/03 11:05:04;;;;;;;11.77;2.53;;;9.20;99.90;;;;;;5003960;28;20038;-86
2024/01/03 11:07:47;;;;;;;13.23;2.40;;;9.50;99.90;;;;;;4994460;28;20543;-85
2024/01/03 11:10:50;;;;;;;10.50;2.25;;;9.40;99.90;;;;;;5005839;28;20529;-84
2024/01/03 11:13:34;;;;;;;11.00;2.25;;;9.30;99.90;;;;;;5005227;28;20046;-84
2024/01/03 11:16:02;;;;;;;10.40;2.22;;;9.50;99.90;;;;;;4991298;28;20056;-83
2024/01/03 11:18:40;;;;;;;10.45;2.38;;;9.60;99.90;;;;;;5037436;28;20037;-84
2024/01/03 11:21:26;;;;;;;8.07;1.92;;;9.90;99.90;;;;;;5005238;28;20054;-84
2024/01/03 11:23:56;;;;;;;9.60;2.25;;;9.80;99.90;;;;;;4989759;28;20215;-85
2024/01/03 11:26:58;;;;;;;12.32;2.42;;;9.80;99.90;;;;;;5003791;28;20038;-85
2024/01/03 11:29:36;;;;;;;9.82;2.20;;;9.90;99.90;;;;;;5015939;28;20096;-84
2024/01/03 11:32:12;;;;;;;13.02;2.78;;;9.70;99.90;;;;;;5004527;28;20034;-84
2024/01/03 11:34:44;;;;;;;11.52;2.53;;;9.70;99.90;;;;;;4986902;28;20049;-86
2024/01/03 11:37:19;;;;;;;12.38;2.85;;;9.80;99.90;;;;;;5005162;28;20514;-85
2024/01/03 11:39:52;;;;;;;12.55;3.03;;;9.80;99.90;;;;;;5005642;28;20100;-84
2024/01/03 11:42:18;;;;;;;;;;;10.00;99.90;;;;;;5004955;28;21931;-85
2024/01/03 11:44:44;;;;;;;9.38;2.30;;;10.20;99.90;;;;;;4984738;28;19917;-85
2024/01/03 11:47:13;;;;;;;11.57;2.60;;;10.20;99.90;;;;;;4985568;28;20033;-84
2024/01/03 11:49:40;;;;;;;13.80;2.40;;;10.20;99.90;;;;;;4990495;28;20442;-84
2024/01/03 11:52:06;;;;;;;13.52;2.70;;;10.40;99.90;;;;;;4972789;28;20111;-84
2024/01/03 11:54:33;;;;;;;9.18;2.30;;;10.40;99.90;;;;;;4973002;28;20479;-85
2024/01/03 11:57:07;;;;;;;11.52;2.70;;;10.40;99.90;;;;;;4992004;28;20053;-86
2024/01/03 11:59:33;;;;;;;9.57;2.30;;;10.40;99.90;;;;;;4988230;28;20046;-85
2024/01/03 12:01:59;;;;;;;10.80;2.83;;;10.20;99.90;;;;;;4986191;28;20045;-83
2024/01/03 12:04:27;;;;;;;13.68;2.97;;;10.20;99.90;;;;;;4988465;28;20036;-84
2024/01/03 12:06:56;;;;;;;13.85;2.97;;;10.20;99.90;;;;;;5000887;28;20033;-84
2024/01/03 12:09:31;;;;;;;10.40;2.47;;;10.00;99.90;;;;;;4996292;28;20526;-85
2024/01/03 12:11:57;;;;;;;12.02;2.50;;;10.00;99.90;;;;;;5012372;28;20042;-85
2024/01/03 12:14:22;;;;;;;11.43;2.42;;;10.00;99.90;;;;;;4983028;28;20034;-84
2024/01/03 12:16:51;;;;;;;11.73;2.50;;;10.00;99.90;;;;;;5016192;28;20407;-84
2024/01/03 12:19:24;;;;;;;10.70;2.30;;;10.00;99.90;;;;;;5034679;28;20042;-84
2024/01/03 12:21:56;;;;;;;11.85;2.30;;;10.00;99.90;;;;;;5007506;28;20065;-83
2024/01/03 12:24:22;;;;;;;12.27;2.72;;;10.00;99.90;;;;;;4986456;28;20046;-84
2024/01/03 12:26:49;;;;;;;13.18;2.83;;;10.00;99.90;;;;;;5020053;28;20036;-84
2024/01/03 12:29:15;;;;;;;9.73;2.60;;;10.00;99.90;;;;;;5019570;28;20080;-84
2024/01/03 12:31:40;;;;;;;10.48;2.42;;;9.90;99.90;;;;;;4985500;28;20077;-84
2024/01/03 12:34:08;;;;;;;10.88;2.67;;;10.00;99.90;;;;;;4985127;28;20053;-84
2024/01/03 12:36:34;;;;;;;8.93;2.40;;;10.00;99.90;;;;;;4983845;28;20392;-84
2024/01/03 12:39:00;;;;;;;10.43;2.25;;;10.10;99.90;;;;;;4971184;28;20404;-83
2024/01/03 12:41:26;;;;;;;10.35;2.67;;;9.90;99.90;;;;;;4991438;28;20470;-84
2024/01/03 12:43:52;;;;;;;11.15;2.60;;;9.90;99.90;;;;;;4983740;28;20118;-84
2024/01/03 12:46:17;;;;;;;7.63;2.10;;;9.90;99.90;;;;;;5004648;28;20488;-84
2024/01/03 12:48:44;;;;;;;11.95;2.83;;;9.90;99.90;;;;;;4991456;28;20129;-84
2024/01/03 12:51:10;;;;;;;10.05;2.33;;;9.90;99.90;;;;;;4967000;28;20034;-84
2024/01/03 12:53:37;;;;;;;9.23;2.22;;;9.80;99.90;;;;;;4990390;28;20042;-85